sensor_id;sensor_type;location;lat;lon;timestamp;pressure;altitude;pressure_sealevel;temperature
67758;BMP180;54562;47.620;18.786;2022-08-03T00:00:44;98652.40;;;18.50
67758;BMP180;54562;47.620;18.786;2022-08-03T00:03:51;98658.80;;;18.42
67758;BMP180;54562;47.620;18.786;2022-08-03T00:07:00;98658.00;;;18.40
67758;BMP180;54562;47.620;18.786;2022-08-03T00:10:12;98651.20;;;18.40
67758;BMP180;54562;47.620;18.786;2022-08-03T00:13:20;98653.80;;;18.30
67758;BMP180;54562;47.620;18.786;2022-08-03T00:16:28;98656.40;;;18.28
67758;BMP180;54562;47.620;18.786;2022-08-03T00:19:36;98654.80;;;18.26
67758;BMP180;54562;47.620;18.786;2022-08-03T00:22:44;98657.80;;;18.28
67758;BMP180;54562;47.620;18.786;2022-08-03T00:25:53;98653.60;;;18.28
67758;BMP180;54562;47.620;18.786;2022-08-03T00:29:01;98653.20;;;18.30
67758;BMP180;54562;47.620;18.786;2022-08-03T00:32:09;98654.40;;;18.30
67758;BMP180;54562;47.620;18.786;2022-08-03T00:35:17;98653.60;;;18.22
67758;BMP180;54562;47.620;18.786;2022-08-03T00:38:45;98649.80;;;18.20
67758;BMP180;54562;47.620;18.786;2022-08-03T00:41:53;98653.00;;;18.14
67758;BMP180;54562;47.620;18.786;2022-08-03T00:45:01;98648.80;;;18.10
67758;BMP180;54562;47.620;18.786;2022-08-03T00:48:10;98655.80;;;18.10
67758;BMP180;54562;47.620;18.786;2022-08-03T00:51:37;98655.80;;;18.00
67758;BMP180;54562;47.620;18.786;2022-08-03T00:54:45;98661.40;;;18.00
67758;BMP180;54562;47.620;18.786;2022-08-03T00:57:55;98655.60;;;17.90
67758;BMP180;54562;47.620;18.786;2022-08-03T01:01:04;98658.20;;;17.82
67758;BMP180;54562;47.620;18.786;2022-08-03T01:04:13;98651.60;;;17.80
67758;BMP180;54562;47.620;18.786;2022-08-03T01:07:29;98657.00;;;17.80
67758;BMP180;54562;47.620;18.786;2022-08-03T01:10:52;98657.40;;;17.80
67758;BMP180;54562;47.620;18.786;2022-08-03T01:14:11;98657.20;;;17.70
67758;BMP180;54562;47.620;18.786;2022-08-03T01:17:33;98656.60;;;17.70
67758;BMP180;54562;47.620;18.786;2022-08-03T01:20:48;98659.80;;;17.70
67758;BMP180;54562;47.620;18.786;2022-08-03T01:24:19;98662.20;;;17.70
67758;BMP180;54562;47.620;18.786;2022-08-03T01:27:45;98663.40;;;17.70
67758;BMP180;54562;47.620;18.786;2022-08-03T01:31:00;98668.20;;;17.70
67758;BMP180;54562;47.620;18.786;2022-08-03T01:34:14;98666.60;;;17.68
67758;BMP180;54562;47.620;18.786;2022-08-03T01:37:30;98672.80;;;17.60
67758;BMP180;54562;47.620;18.786;2022-08-03T01:40:45;98664.40;;;17.50
67758;BMP180;54562;47.620;18.786;2022-08-03T01:43:57;98666.00;;;17.50
67758;BMP180;54562;47.620;18.786;2022-08-03T01:47:28;98661.20;;;17.40
67758;BMP180;54562;47.620;18.786;2022-08-03T01:50:37;98657.80;;;17.40
67758;BMP180;54562;47.620;18.786;2022-08-03T01:53:49;98656.00;;;17.38
67758;BMP180;54562;47.620;18.786;2022-08-03T01:57:01;98657.80;;;17.30
67758;BMP180;54562;47.620;18.786;2022-08-03T02:00:12;98655.80;;;17.30
67758;BMP180;54562;47.620;18.786;2022-08-03T02:03:22;98656.60;;;17.30
67758;BMP180;54562;47.620;18.786;2022-08-03T02:06:34;98658.20;;;17.40
67758;BMP180;54562;47.620;18.786;2022-08-03T02:10:06;98660.20;;;17.50
67758;BMP180;54562;47.620;18.786;2022-08-03T02:13:17;98658.60;;;17.52
67758;BMP180;54562;47.620;18.786;2022-08-03T02:16:26;98656.00;;;17.52
67758;BMP180;54562;47.620;18.786;2022-08-03T02:19:35;98652.00;;;17.50
67758;BMP180;54562;47.620;18.786;2022-08-03T02:22:47;98649.00;;;17.50
67758;BMP180;54562;47.620;18.786;2022-08-03T02:25:59;98652.60;;;17.40
67758;BMP180;54562;47.620;18.786;2022-08-03T02:29:17;98650.00;;;17.40
67758;BMP180;54562;47.620;18.786;2022-08-03T02:32:54;98648.80;;;17.40
67758;BMP180;54562;47.620;18.786;2022-08-03T02:36:04;98649.60;;;17.40
67758;BMP180;54562;47.620;18.786;2022-08-03T02:39:18;98647.80;;;17.40
67758;BMP180;54562;47.620;18.786;2022-08-03T02:42:29;98652.60;;;17.40
67758;BMP180;54562;47.620;18.786;2022-08-03T02:45:45;98651.60;;;17.50
67758;BMP180;54562;47.620;18.786;2022-08-03T02:48:54;98652.80;;;17.60
67758;BMP180;54562;47.620;18.786;2022-08-03T02:52:05;98651.40;;;17.70
67758;BMP180;54562;47.620;18.786;2022-08-03T02:55:20;98650.20;;;17.76
67758;BMP180;54562;47.620;18.786;2022-08-03T02:58:29;98649.20;;;17.80
67758;BMP180;54562;47.620;18.786;2022-08-03T03:01:38;98648.40;;;17.90
67758;BMP180;54562;47.620;18.786;2022-08-03T03:04:48;98653.80;;;18.00
67758;BMP180;54562;47.620;18.786;2022-08-03T03:08:19;98648.40;;;18.10
67758;BMP180;54562;47.620;18.786;2022-08-03T03:11:37;98652.60;;;18.20
67758;BMP180;54562;47.620;18.786;2022-08-03T03:14:45;98651.80;;;18.20
67758;BMP180;54562;47.620;18.786;2022-08-03T03:17:54;98651.80;;;18.20
67758;BMP180;54562;47.620;18.786;2022-08-03T03:21:04;98653.20;;;18.24
67758;BMP180;54562;47.620;18.786;2022-08-03T03:24:14;98655.80;;;18.20
67758;BMP180;54562;47.620;18.786;2022-08-03T03:27:23;98651.40;;;18.20
67758;BMP180;54562;47.620;18.786;2022-08-03T03:30:33;98649.80;;;18.20
67758;BMP180;54562;47.620;18.786;2022-08-03T03:33:41;98651.60;;;18.20
67758;BMP180;54562;47.620;18.786;2022-08-03T03:36:49;98650.00;;;18.20
67758;BMP180;54562;47.620;18.786;2022-08-03T03:39:58;98651.20;;;18.10
67758;BMP180;54562;47.620;18.786;2022-08-03T03:43:10;98654.80;;;18.10
67758;BMP180;54562;47.620;18.786;2022-08-03T03:46:18;98659.60;;;18.02
67758;BMP180;54562;47.620;18.786;2022-08-03T03:49:27;98658.80;;;18.00
67758;BMP180;54562;47.620;18.786;2022-08-03T03:52:35;98658.00;;;17.98
67758;BMP180;54562;47.620;18.786;2022-08-03T03:55:44;98660.20;;;17.90
67758;BMP180;54562;47.620;18.786;2022-08-03T03:59:08;98659.80;;;17.86
67758;BMP180;54562;47.620;18.786;2022-08-03T04:02:16;98659.00;;;17.80
67758;BMP180;54562;47.620;18.786;2022-08-03T04:05:24;98666.20;;;17.86
67758;BMP180;54562;47.620;18.786;2022-08-03T04:08:51;98670.00;;;17.90
67758;BMP180;54562;47.620;18.786;2022-08-03T04:12:18;98674.40;;;17.90
67758;BMP180;54562;47.620;18.786;2022-08-03T04:15:27;98676.60;;;17.90
67758;BMP180;54562;47.620;18.786;2022-08-03T04:18:39;98682.20;;;17.90
67758;BMP180;54562;47.620;18.786;2022-08-03T04:21:51;98687.40;;;17.90
67758;BMP180;54562;47.620;18.786;2022-08-03T04:25:08;98684.00;;;17.88
67758;BMP180;54562;47.620;18.786;2022-08-03T04:28:19;98692.80;;;17.90
67758;BMP180;54562;47.620;18.786;2022-08-03T04:31:38;98696.60;;;17.90
67758;BMP180;54562;47.620;18.786;2022-08-03T04:34:47;98704.40;;;17.90
67758;BMP180;54562;47.620;18.786;2022-08-03T04:38:00;98702.00;;;17.90
67758;BMP180;54562;47.620;18.786;2022-08-03T04:41:09;98708.60;;;17.90
67758;BMP180;54562;47.620;18.786;2022-08-03T04:44:20;98709.00;;;17.90
67758;BMP180;54562;47.620;18.786;2022-08-03T04:47:35;98714.20;;;18.00
67758;BMP180;54562;47.620;18.786;2022-08-03T04:50:45;98711.40;;;18.00
67758;BMP180;54562;47.620;18.786;2022-08-03T04:53:54;98716.40;;;18.00
67758;BMP180;54562;47.620;18.786;2022-08-03T04:57:02;98726.60;;;18.10
67758;BMP180;54562;47.620;18.786;2022-08-03T05:00:12;98728.00;;;18.10
67758;BMP180;54562;47.620;18.786;2022-08-03T05:03:21;98730.20;;;18.10
67758;BMP180;54562;47.620;18.786;2022-08-03T05:06:30;98734.00;;;18.10
67758;BMP180;54562;47.620;18.786;2022-08-03T05:09:38;98736.00;;;18.10
67758;BMP180;54562;47.620;18.786;2022-08-03T05:12:57;98735.00;;;18.10
67758;BMP180;54562;47.620;18.786;2022-08-03T05:16:06;98737.80;;;18.10
67758;BMP180;54562;47.620;18.786;2022-08-03T05:19:14;98736.00;;;18.10
67758;BMP180;54562;47.620;18.786;2022-08-03T05:22:22;98737.80;;;18.10
67758;BMP180;54562;47.620;18.786;2022-08-03T05:25:31;98738.40;;;18.20
67758;BMP180;54562;47.620;18.786;2022-08-03T05:28:39;98739.20;;;18.20
67758;BMP180;54562;47.620;18.786;2022-08-03T05:31:56;98741.40;;;18.30
67758;BMP180;54562;47.620;18.786;2022-08-03T05:35:06;98735.80;;;18.30
67758;BMP180;54562;47.620;18.786;2022-08-03T05:38:34;98751.00;;;18.50
67758;BMP180;54562;47.620;18.786;2022-08-03T05:41:42;98744.80;;;18.62
67758;BMP180;54562;47.620;18.786;2022-08-03T05:44:50;98747.60;;;18.84
67758;BMP180;54562;47.620;18.786;2022-08-03T05:47:59;98749.00;;;19.00
67758;BMP180;54562;47.620;18.786;2022-08-03T05:51:07;98751.00;;;19.20
67758;BMP180;54562;47.620;18.786;2022-08-03T05:54:17;98750.00;;;19.40
67758;BMP180;54562;47.620;18.786;2022-08-03T05:57:25;98746.20;;;19.60
67758;BMP180;54562;47.620;18.786;2022-08-03T06:00:33;98753.20;;;19.80
67758;BMP180;54562;47.620;18.786;2022-08-03T06:03:41;98756.60;;;20.06
67758;BMP180;54562;47.620;18.786;2022-08-03T06:06:50;98758.20;;;20.30
67758;BMP180;54562;47.620;18.786;2022-08-03T06:09:58;98762.20;;;20.50
67758;BMP180;54562;47.620;18.786;2022-08-03T06:13:27;98761.00;;;20.70
67758;BMP180;54562;47.620;18.786;2022-08-03T06:16:35;98765.80;;;20.90
67758;BMP180;54562;47.620;18.786;2022-08-03T06:19:44;98762.40;;;21.00
67758;BMP180;54562;47.620;18.786;2022-08-03T06:22:52;98760.40;;;21.20
67758;BMP180;54562;47.620;18.786;2022-08-03T06:26:06;98763.80;;;21.40
67758;BMP180;54562;47.620;18.786;2022-08-03T06:29:14;98765.00;;;21.60
67758;BMP180;54562;47.620;18.786;2022-08-03T06:32:22;98766.60;;;21.70
67758;BMP180;54562;47.620;18.786;2022-08-03T06:35:30;98765.20;;;21.90
67758;BMP180;54562;47.620;18.786;2022-08-03T06:38:40;98763.00;;;22.10
67758;BMP180;54562;47.620;18.786;2022-08-03T06:41:48;98768.80;;;22.26
67758;BMP180;54562;47.620;18.786;2022-08-03T06:44:57;98763.20;;;22.40
67758;BMP180;54562;47.620;18.786;2022-08-03T06:48:07;98769.60;;;22.54
67758;BMP180;54562;47.620;18.786;2022-08-03T06:51:16;98761.80;;;22.70
67758;BMP180;54562;47.620;18.786;2022-08-03T06:54:23;98768.00;;;22.90
67758;BMP180;54562;47.620;18.786;2022-08-03T06:57:33;98760.60;;;23.10
67758;BMP180;54562;47.620;18.786;2022-08-03T07:00:40;98757.80;;;23.30
67758;BMP180;54562;47.620;18.786;2022-08-03T07:03:49;98771.40;;;23.54
67758;BMP180;54562;47.620;18.786;2022-08-03T07:06:58;98769.00;;;23.78
67758;BMP180;54562;47.620;18.786;2022-08-03T07:10:08;98772.00;;;23.90
67758;BMP180;54562;47.620;18.786;2022-08-03T07:13:17;98768.20;;;24.00
67758;BMP180;54562;47.620;18.786;2022-08-03T07:16:27;98772.40;;;24.20
67758;BMP180;54562;47.620;18.786;2022-08-03T07:19:35;98770.20;;;24.40
67758;BMP180;54562;47.620;18.786;2022-08-03T07:22:43;98769.20;;;24.60
67758;BMP180;54562;47.620;18.786;2022-08-03T07:25:52;98771.60;;;24.80
67758;BMP180;54562;47.620;18.786;2022-08-03T07:29:01;98767.20;;;24.90
67758;BMP180;54562;47.620;18.786;2022-08-03T07:32:20;98768.60;;;24.94
67758;BMP180;54562;47.620;18.786;2022-08-03T07:35:28;98768.40;;;25.10
67758;BMP180;54562;47.620;18.786;2022-08-03T07:38:36;98768.60;;;25.28
67758;BMP180;54562;47.620;18.786;2022-08-03T07:41:45;98765.80;;;25.44
67758;BMP180;54562;47.620;18.786;2022-08-03T07:44:55;98762.00;;;25.60
67758;BMP180;54562;47.620;18.786;2022-08-03T07:48:04;98765.00;;;25.78
67758;BMP180;54562;47.620;18.786;2022-08-03T07:51:17;98772.20;;;25.90
67758;BMP180;54562;47.620;18.786;2022-08-03T07:54:25;98763.80;;;26.00
67758;BMP180;54562;47.620;18.786;2022-08-03T07:57:33;98759.60;;;26.10
67758;BMP180;54562;47.620;18.786;2022-08-03T08:00:42;98759.60;;;26.26
67758;BMP180;54562;47.620;18.786;2022-08-03T08:03:50;98759.60;;;26.30
67758;BMP180;54562;47.620;18.786;2022-08-03T08:06:59;98761.20;;;26.40
67758;BMP180;54562;47.620;18.786;2022-08-03T08:10:09;98759.20;;;26.50
67758;BMP180;54562;47.620;18.786;2022-08-03T08:13:18;98759.80;;;26.70
67758;BMP180;54562;47.620;18.786;2022-08-03T08:16:26;98761.40;;;26.76
67758;BMP180;54562;47.620;18.786;2022-08-03T08:19:34;98761.40;;;26.86
67758;BMP180;54562;47.620;18.786;2022-08-03T08:22:49;98764.00;;;26.92
67758;BMP180;54562;47.620;18.786;2022-08-03T08:25:57;98765.00;;;27.10
67758;BMP180;54562;47.620;18.786;2022-08-03T08:29:05;98764.40;;;27.20
67758;BMP180;54562;47.620;18.786;2022-08-03T08:32:13;98766.20;;;27.40
67758;BMP180;54562;47.620;18.786;2022-08-03T08:35:22;98765.60;;;27.54
67758;BMP180;54562;47.620;18.786;2022-08-03T08:38:30;98767.20;;;27.70
67758;BMP180;54562;47.620;18.786;2022-08-03T08:41:38;98767.00;;;27.80
67758;BMP180;54562;47.620;18.786;2022-08-03T08:44:52;98763.00;;;27.90
67758;BMP180;54562;47.620;18.786;2022-08-03T08:48:03;98761.40;;;27.96
67758;BMP180;54562;47.620;18.786;2022-08-03T08:51:14;98759.20;;;28.00
67758;BMP180;54562;47.620;18.786;2022-08-03T08:54:23;98763.40;;;27.88
67758;BMP180;54562;47.620;18.786;2022-08-03T08:57:35;98763.60;;;28.00
67758;BMP180;54562;47.620;18.786;2022-08-03T09:00:49;98761.00;;;28.20
67758;BMP180;54562;47.620;18.786;2022-08-03T09:03:57;98760.80;;;28.10
67758;BMP180;54562;47.620;18.786;2022-08-03T09:07:05;98757.80;;;28.00
67758;BMP180;54562;47.620;18.786;2022-08-03T09:10:25;98752.80;;;27.90
67758;BMP180;54562;47.620;18.786;2022-08-03T09:13:35;98752.00;;;27.90
67758;BMP180;54562;47.620;18.786;2022-08-03T09:16:58;98758.20;;;28.10
67758;BMP180;54562;47.620;18.786;2022-08-03T09:20:10;98755.80;;;28.40
67758;BMP180;54562;47.620;18.786;2022-08-03T09:23:18;98754.60;;;28.60
67758;BMP180;54562;47.620;18.786;2022-08-03T09:26:51;98744.60;;;28.68
67758;BMP180;54562;47.620;18.786;2022-08-03T09:30:00;98748.40;;;28.60
67758;BMP180;54562;47.620;18.786;2022-08-03T09:33:09;98752.60;;;28.40
67758;BMP180;54562;47.620;18.786;2022-08-03T09:36:36;98746.40;;;28.30
67758;BMP180;54562;47.620;18.786;2022-08-03T09:39:46;98748.40;;;28.50
67758;BMP180;54562;47.620;18.786;2022-08-03T09:42:59;98749.60;;;28.60
67758;BMP180;54562;47.620;18.786;2022-08-03T09:46:07;98750.00;;;28.60
67758;BMP180;54562;47.620;18.786;2022-08-03T09:49:15;98745.80;;;28.50
67758;BMP180;54562;47.620;18.786;2022-08-03T09:52:33;98747.00;;;28.40
67758;BMP180;54562;47.620;18.786;2022-08-03T09:55:58;98740.20;;;28.40
67758;BMP180;54562;47.620;18.786;2022-08-03T09:59:28;98740.00;;;28.26
67758;BMP180;54562;47.620;18.786;2022-08-03T10:02:37;98737.20;;;28.20
67758;BMP180;54562;47.620;18.786;2022-08-03T10:05:45;98735.00;;;28.10
67758;BMP180;54562;47.620;18.786;2022-08-03T10:09:08;98737.80;;;28.06
67758;BMP180;54562;47.620;18.786;2022-08-03T10:12:16;98731.60;;;27.90
67758;BMP180;54562;47.620;18.786;2022-08-03T10:15:25;98731.00;;;27.86
67758;BMP180;54562;47.620;18.786;2022-08-03T10:18:53;98728.00;;;27.80
67758;BMP180;54562;47.620;18.786;2022-08-03T10:22:09;98727.40;;;27.70
67758;BMP180;54562;47.620;18.786;2022-08-03T10:25:19;98720.40;;;27.90
67758;BMP180;54562;47.620;18.786;2022-08-03T10:28:48;98723.60;;;28.42
67758;BMP180;54562;47.620;18.786;2022-08-03T10:31:59;98718.00;;;28.92
67758;BMP180;54562;47.620;18.786;2022-08-03T10:35:14;98716.20;;;29.26
67758;BMP180;54562;47.620;18.786;2022-08-03T10:38:36;98713.80;;;29.74
67758;BMP180;54562;47.620;18.786;2022-08-03T10:41:45;98711.80;;;30.36
67758;BMP180;54562;47.620;18.786;2022-08-03T10:45:02;98717.80;;;30.70
67758;BMP180;54562;47.620;18.786;2022-08-03T10:48:11;98713.60;;;31.00
67758;BMP180;54562;47.620;18.786;2022-08-03T10:51:21;98706.00;;;30.80
67758;BMP180;54562;47.620;18.786;2022-08-03T10:54:44;98707.40;;;30.60
67758;BMP180;54562;47.620;18.786;2022-08-03T10:58:16;98706.40;;;30.30
67758;BMP180;54562;47.620;18.786;2022-08-03T11:02:03;98699.60;;;30.06
67758;BMP180;54562;47.620;18.786;2022-08-03T11:05:31;98697.80;;;29.84
67758;BMP180;54562;47.620;18.786;2022-08-03T11:08:41;98695.60;;;29.60
67758;BMP180;54562;47.620;18.786;2022-08-03T11:11:49;98698.20;;;29.40
67758;BMP180;54562;47.620;18.786;2022-08-03T11:15:03;98695.40;;;29.30
67758;BMP180;54562;47.620;18.786;2022-08-03T11:18:13;98691.80;;;29.10
67758;BMP180;54562;47.620;18.786;2022-08-03T11:21:57;98695.20;;;29.00
67758;BMP180;54562;47.620;18.786;2022-08-03T11:25:07;98692.00;;;28.96
67758;BMP180;54562;47.620;18.786;2022-08-03T11:28:35;98689.80;;;29.00
67758;BMP180;54562;47.620;18.786;2022-08-03T11:31:49;98689.00;;;29.00
67758;BMP180;54562;47.620;18.786;2022-08-03T11:35:11;98682.60;;;29.06
67758;BMP180;54562;47.620;18.786;2022-08-03T11:38:19;98680.80;;;29.24
67758;BMP180;54562;47.620;18.786;2022-08-03T11:41:36;98678.40;;;29.84
67758;BMP180;54562;47.620;18.786;2022-08-03T11:44:52;98676.80;;;30.48
67758;BMP180;54562;47.620;18.786;2022-08-03T11:48:11;98675.80;;;30.96
67758;BMP180;54562;47.620;18.786;2022-08-03T11:51:25;98673.40;;;31.20
67758;BMP180;54562;47.620;18.786;2022-08-03T11:54:34;98671.20;;;31.40
67758;BMP180;54562;47.620;18.786;2022-08-03T11:57:43;98664.80;;;31.84
67758;BMP180;54562;47.620;18.786;2022-08-03T12:01:12;98663.40;;;32.30
67758;BMP180;54562;47.620;18.786;2022-08-03T12:04:28;98657.80;;;32.60
67758;BMP180;54562;47.620;18.786;2022-08-03T12:07:46;98655.20;;;32.78
67758;BMP180;54562;47.620;18.786;2022-08-03T12:11:14;98649.80;;;32.70
67758;BMP180;54562;47.620;18.786;2022-08-03T12:14:22;98652.00;;;32.32
67758;BMP180;54562;47.620;18.786;2022-08-03T12:17:50;98652.40;;;31.98
67758;BMP180;54562;47.620;18.786;2022-08-03T12:21:10;98648.80;;;31.68
67758;BMP180;54562;47.620;18.786;2022-08-03T12:24:18;98654.40;;;31.40
67758;BMP180;54562;47.620;18.786;2022-08-03T12:27:27;98648.80;;;31.16
67758;BMP180;54562;47.620;18.786;2022-08-03T12:30:36;98648.00;;;31.00
67758;BMP180;54562;47.620;18.786;2022-08-03T12:34:03;98643.20;;;30.80
67758;BMP180;54562;47.620;18.786;2022-08-03T12:37:13;98645.20;;;30.62
67758;BMP180;54562;47.620;18.786;2022-08-03T12:40:35;98641.00;;;30.40
67758;BMP180;54562;47.620;18.786;2022-08-03T12:43:51;98634.00;;;30.30
67758;BMP180;54562;47.620;18.786;2022-08-03T12:47:02;98626.20;;;30.40
67758;BMP180;54562;47.620;18.786;2022-08-03T12:50:27;98629.40;;;30.24
67758;BMP180;54562;47.620;18.786;2022-08-03T12:53:37;98626.20;;;30.10
67758;BMP180;54562;47.620;18.786;2022-08-03T13:00:34;98626.20;;;30.08
67758;BMP180;54562;47.620;18.786;2022-08-03T13:03:42;98624.40;;;30.10
67758;BMP180;54562;47.620;18.786;2022-08-03T13:07:00;98618.20;;;30.10
67758;BMP180;54562;47.620;18.786;2022-08-03T13:10:09;98616.80;;;30.02
67758;BMP180;54562;47.620;18.786;2022-08-03T13:13:14;98617.80;;;30.00
67758;BMP180;54562;47.620;18.786;2022-08-03T13:16:19;98615.80;;;29.90
67758;BMP180;54562;47.620;18.786;2022-08-03T13:19:25;98613.40;;;29.90
67758;BMP180;54562;47.620;18.786;2022-08-03T13:22:30;98616.00;;;29.92
67758;BMP180;54562;47.620;18.786;2022-08-03T13:25:36;98613.60;;;30.06
67758;BMP180;54562;47.620;18.786;2022-08-03T13:28:58;98607.80;;;30.66
67758;BMP180;54562;47.620;18.786;2022-08-03T13:32:05;98601.00;;;30.80
67758;BMP180;54562;47.620;18.786;2022-08-03T13:35:11;98599.00;;;31.30
67758;BMP180;54562;47.620;18.786;2022-08-03T13:38:20;98608.00;;;31.90
67758;BMP180;54562;47.620;18.786;2022-08-03T13:41:31;98602.20;;;32.40
67758;BMP180;54562;47.620;18.786;2022-08-03T13:44:36;98598.40;;;32.90
67758;BMP180;54562;47.620;18.786;2022-08-03T13:47:41;98596.60;;;33.30
67758;BMP180;54562;47.620;18.786;2022-08-03T13:50:46;98599.80;;;33.50
67758;BMP180;54562;47.620;18.786;2022-08-03T13:53:51;98594.20;;;33.80
67758;BMP180;54562;47.620;18.786;2022-08-03T13:56:57;98594.40;;;34.18
67758;BMP180;54562;47.620;18.786;2022-08-03T14:00:22;98588.20;;;34.40
67758;BMP180;54562;47.620;18.786;2022-08-03T14:03:32;98595.20;;;34.64
67758;BMP180;54562;47.620;18.786;2022-08-03T14:06:37;98586.80;;;34.80
67758;BMP180;54562;47.620;18.786;2022-08-03T14:09:49;98588.00;;;34.90
67758;BMP180;54562;47.620;18.786;2022-08-03T14:12:54;98582.80;;;34.84
67758;BMP180;54562;47.620;18.786;2022-08-03T14:16:03;98581.80;;;34.34
67758;BMP180;54562;47.620;18.786;2022-08-03T14:19:13;98581.00;;;33.82
67758;BMP180;54562;47.620;18.786;2022-08-03T14:22:19;98577.60;;;33.38
67758;BMP180;54562;47.620;18.786;2022-08-03T14:25:23;98573.80;;;33.00
67758;BMP180;54562;47.620;18.786;2022-08-03T14:28:28;98570.80;;;32.68
67758;BMP180;54562;47.620;18.786;2022-08-03T14:31:33;98575.60;;;32.34
67758;BMP180;54562;47.620;18.786;2022-08-03T14:34:58;98570.80;;;32.00
67758;BMP180;54562;47.620;18.786;2022-08-03T14:38:03;98570.40;;;31.70
67758;BMP180;54562;47.620;18.786;2022-08-03T14:41:13;98571.00;;;31.50
67758;BMP180;54562;47.620;18.786;2022-08-03T14:44:23;98571.20;;;31.30
67758;BMP180;54562;47.620;18.786;2022-08-03T14:47:28;98568.20;;;31.10
67758;BMP180;54562;47.620;18.786;2022-08-03T14:50:34;98568.80;;;31.00
67758;BMP180;54562;47.620;18.786;2022-08-03T14:53:50;98563.80;;;30.80
67758;BMP180;54562;47.620;18.786;2022-08-03T14:56:55;98567.80;;;30.60
67758;BMP180;54562;47.620;18.786;2022-08-03T15:00:04;98562.00;;;30.50
67758;BMP180;54562;47.620;18.786;2022-08-03T15:03:10;98563.20;;;30.40
67758;BMP180;54562;47.620;18.786;2022-08-03T15:06:20;98563.20;;;30.30
67758;BMP180;54562;47.620;18.786;2022-08-03T15:09:25;98564.40;;;30.26
67758;BMP180;54562;47.620;18.786;2022-08-03T15:12:30;98562.20;;;30.30
67758;BMP180;54562;47.620;18.786;2022-08-03T15:15:35;98557.20;;;30.30
67758;BMP180;54562;47.620;18.786;2022-08-03T15:18:40;98563.00;;;30.52
67758;BMP180;54562;47.620;18.786;2022-08-03T15:21:45;98552.80;;;30.88
67758;BMP180;54562;47.620;18.786;2022-08-03T15:24:51;98553.60;;;31.20
67758;BMP180;54562;47.620;18.786;2022-08-03T15:27:56;98549.20;;;31.40
67758;BMP180;54562;47.620;18.786;2022-08-03T15:31:08;98547.80;;;31.64
67758;BMP180;54562;47.620;18.786;2022-08-03T15:34:12;98547.20;;;31.80
67758;BMP180;54562;47.620;18.786;2022-08-03T15:37:17;98550.40;;;32.00
67758;BMP180;54562;47.620;18.786;2022-08-03T15:40:23;98547.40;;;32.10
67758;BMP180;54562;47.620;18.786;2022-08-03T15:43:27;98546.20;;;32.00
67758;BMP180;54562;47.620;18.786;2022-08-03T15:46:32;98545.40;;;31.80
67758;BMP180;54562;47.620;18.786;2022-08-03T15:49:37;98539.20;;;31.58
67758;BMP180;54562;47.620;18.786;2022-08-03T15:52:42;98541.20;;;31.32
67758;BMP180;54562;47.620;18.786;2022-08-03T15:55:47;98538.00;;;31.10
67758;BMP180;54562;47.620;18.786;2022-08-03T15:58:52;98540.40;;;31.00
67758;BMP180;54562;47.620;18.786;2022-08-03T16:02:16;98537.60;;;30.80
67758;BMP180;54562;47.620;18.786;2022-08-03T16:05:22;98539.00;;;30.68
67758;BMP180;54562;47.620;18.786;2022-08-03T16:08:26;98541.80;;;30.60
67758;BMP180;54562;47.620;18.786;2022-08-03T16:11:32;98537.00;;;30.50
67758;BMP180;54562;47.620;18.786;2022-08-03T16:14:37;98540.00;;;30.40
67758;BMP180;54562;47.620;18.786;2022-08-03T16:17:55;98529.80;;;30.30
67758;BMP180;54562;47.620;18.786;2022-08-03T16:21:00;98534.20;;;30.28
67758;BMP180;54562;47.620;18.786;2022-08-03T16:24:06;98530.20;;;30.20
67758;BMP180;54562;47.620;18.786;2022-08-03T16:27:21;98527.80;;;30.16
67758;BMP180;54562;47.620;18.786;2022-08-03T16:30:47;98526.80;;;30.10
67758;BMP180;54562;47.620;18.786;2022-08-03T16:33:52;98524.20;;;30.00
67758;BMP180;54562;47.620;18.786;2022-08-03T16:36:57;98518.80;;;29.94
67758;BMP180;54562;47.620;18.786;2022-08-03T16:40:02;98523.60;;;29.90
67758;BMP180;54562;47.620;18.786;2022-08-03T16:43:15;98521.40;;;29.80
67758;BMP180;54562;47.620;18.786;2022-08-03T16:46:22;98519.00;;;29.70
67758;BMP180;54562;47.620;18.786;2022-08-03T16:49:27;98522.00;;;29.60
67758;BMP180;54562;47.620;18.786;2022-08-03T16:52:52;98523.40;;;29.60
67758;BMP180;54562;47.620;18.786;2022-08-03T16:55:58;98529.60;;;29.50
67758;BMP180;54562;47.620;18.786;2022-08-03T16:59:04;98525.40;;;29.40
67758;BMP180;54562;47.620;18.786;2022-08-03T17:02:20;98531.00;;;29.30
67758;BMP180;54562;47.620;18.786;2022-08-03T17:05:29;98527.60;;;29.30
67758;BMP180;54562;47.620;18.786;2022-08-03T17:08:47;98527.40;;;29.20
67758;BMP180;54562;47.620;18.786;2022-08-03T17:11:59;98533.60;;;29.10
67758;BMP180;54562;47.620;18.786;2022-08-03T17:15:06;98537.40;;;29.00
67758;BMP180;54562;47.620;18.786;2022-08-03T17:18:15;98537.00;;;28.90
67758;BMP180;54562;47.620;18.786;2022-08-03T17:21:29;98541.80;;;28.80
67758;BMP180;54562;47.620;18.786;2022-08-03T17:24:38;98540.00;;;28.80
67758;BMP180;54562;47.620;18.786;2022-08-03T17:27:45;98543.40;;;28.70
67758;BMP180;54562;47.620;18.786;2022-08-03T17:31:13;98547.20;;;28.60
67758;BMP180;54562;47.620;18.786;2022-08-03T17:34:34;98554.40;;;28.40
67758;BMP180;54562;47.620;18.786;2022-08-03T17:37:42;98551.80;;;28.30
67758;BMP180;54562;47.620;18.786;2022-08-03T17:41:06;98555.00;;;28.20
67758;BMP180;54562;47.620;18.786;2022-08-03T17:44:15;98555.20;;;28.10
67758;BMP180;54562;47.620;18.786;2022-08-03T17:47:39;98555.20;;;28.00
67758;BMP180;54562;47.620;18.786;2022-08-03T17:50:51;98556.20;;;27.90
67758;BMP180;54562;47.620;18.786;2022-08-03T17:54:05;98559.00;;;27.80
67758;BMP180;54562;47.620;18.786;2022-08-03T17:57:34;98561.00;;;27.70
67758;BMP180;54562;47.620;18.786;2022-08-03T18:01:00;98560.20;;;27.52
67758;BMP180;54562;47.620;18.786;2022-08-03T18:04:53;98557.60;;;27.38
67758;BMP180;54562;47.620;18.786;2022-08-03T18:08:05;98558.20;;;27.20
67758;BMP180;54562;47.620;18.786;2022-08-03T18:11:21;98562.20;;;27.10
67758;BMP180;54562;47.620;18.786;2022-08-03T18:14:35;98565.60;;;26.90